sensor_id;sensor_type;location;lat;lon;timestamp;pressure;altitude;pressure_sealevel;temperature;humidity
75221;BME280;63802;53.232;6.570;2024-03-02T00:00:06;100140.38;;;6.56;100.00
75221;BME280;63802;53.232;6.570;2024-03-02T00:02:43;100159.88;;;6.62;100.00
75221;BME280;63802;53.232;6.570;2024-03-02T00:05:27;100157.50;;;6.60;100.00
75221;BME280;63802;53.232;6.570;2024-03-02T00:07:57;100155.97;;;6.59;100.00
75221;BME280;63802;53.232;6.570;2024-03-02T00:10:27;100165.22;;;6.58;100.00
75221;BME280;63802;53.232;6.570;2024-03-02T00:12:56;100159.78;;;6.58;100.00
75221;BME280;63802;53.232;6.570;2024-03-02T00:18:09;100140.50;;;6.44;100.00
75221;BME280;63802;53.232;6.570;2024-03-02T00:20:35;100168.19;;;6.53;100.00
75221;BME280;63802;53.232;6.570;2024-03-02T00:23:22;100133.41;;;6.40;100.00
75221;BME280;63802;53.232;6.570;2024-03-02T00:25:51;100130.53;;;6.33;100.00
75221;BME280;63802;53.232;6.570;2024-03-02T00:28:25;100155.31;;;6.50;100.00
75221;BME280;63802;53.232;6.570;2024-03-02T00:30:58;100149.47;;;6.48;100.00
75221;BME280;63802;53.232;6.570;2024-03-02T00:33:26;100145.47;;;6.42;100.00
75221;BME280;63802;53.232;6.570;2024-03-02T00:35:52;100147.50;;;6.45;100.00
75221;BME280;63802;53.232;6.570;2024-03-02T00:38:18;100122.31;;;6.29;100.00
75221;BME280;63802;53.232;6.570;2024-03-02T00:40:45;100140.75;;;6.39;100.00
75221;BME280;63802;53.232;6.570;2024-03-02T00:46:04;100142.50;;;6.47;100.00
75221;BME280;63802;53.232;6.570;2024-03-02T00:48:33;100142.50;;;6.47;100.00
75221;BME280;63802;53.232;6.570;2024-03-02T00:51:03;100149.47;;;6.48;100.00
75221;BME280;63802;53.232;6.570;2024-03-02T00:53:31;100143.38;;;6.51;100.00
75221;BME280;63802;53.232;6.570;2024-03-02T00:56:09;100136.38;;;6.50;100.00
75221;BME280;63802;53.232;6.570;2024-03-02T00:58:34;100139.53;;;6.52;100.00
75221;BME280;63802;53.232;6.570;2024-03-02T01:01:03;100130.25;;;6.53;100.00
75221;BME280;63802;53.232;6.570;2024-03-02T01:03:30;100128.69;;;6.52;100.00
75221;BME280;63802;53.232;6.570;2024-03-02T01:05:56;100132.63;;;6.55;100.00
75221;BME280;63802;53.232;6.570;2024-03-02T01:08:21;100127.47;;;6.50;100.00
75221;BME280;63802;53.232;6.570;2024-03-02T01:10:47;100126.25;;;6.47;100.00
75221;BME280;63802;53.232;6.570;2024-03-02T01:13:13;100116.53;;;6.46;100.00
75221;BME280;63802;53.232;6.570;2024-03-02T01:15:38;100122.38;;;6.48;100.00
75221;BME280;63802;53.232;6.570;2024-03-02T01:18:04;100111.53;;;6.48;100.00
75221;BME280;63802;53.232;6.570;2024-03-02T01:20:29;100106.13;;;6.48;100.00
75221;BME280;63802;53.232;6.570;2024-03-02T01:22:55;100086.94;;;6.38;100.00
75221;BME280;63802;53.232;6.570;2024-03-02T01:25:20;100088.16;;;6.40;100.00
75221;BME280;63802;53.232;6.570;2024-03-02T01:27:46;100074.50;;;6.37;100.00
75221;BME280;63802;53.232;6.570;2024-03-02T01:30:12;100077.03;;;6.45;100.00
75221;BME280;63802;53.232;6.570;2024-03-02T01:32:40;100091.19;;;6.54;100.00
75221;BME280;63802;53.232;6.570;2024-03-02T01:35:06;100061.47;;;6.42;100.00
75221;BME280;63802;53.232;6.570;2024-03-02T01:37:32;100083.38;;;6.53;100.00
75221;BME280;63802;53.232;6.570;2024-03-02T01:39:58;100094.22;;;6.53;100.00
75221;BME280;63802;53.232;6.570;2024-03-02T01:42:24;100093.00;;;6.50;100.00
75221;BME280;63802;53.232;6.570;2024-03-02T01:44:49;100086.03;;;6.49;100.00
75221;BME280;63802;53.232;6.570;2024-03-02T01:47:14;100093.47;;;6.52;100.00
75221;BME280;63802;53.232;6.570;2024-03-02T01:49:40;100092.72;;;6.55;100.00
75221;BME280;63802;53.232;6.570;2024-03-02T01:52:07;100087.03;;;6.60;100.00
75221;BME280;63802;53.232;6.570;2024-03-02T01:54:32;100069.50;;;6.54;100.00
75221;BME280;63802;53.232;6.570;2024-03-02T01:57:00;100083.19;;;6.61;100.00
75221;BME280;63802;53.232;6.570;2024-03-02T01:59:27;100075.50;;;6.63;100.00
75221;BME280;63802;53.232;6.570;2024-03-02T02:01:52;100079.63;;;6.57;100.00
75221;BME280;63802;53.232;6.570;2024-03-02T02:04:18;100077.78;;;6.61;100.00
75221;BME280;63802;53.232;6.570;2024-03-02T02:06:46;100062.75;;;6.48;100.00
75221;BME280;63802;53.232;6.570;2024-03-02T02:09:15;100081.56;;;6.57;100.00
75221;BME280;63802;53.232;6.570;2024-03-02T02:11:43;100064.97;;;6.43;100.00
75221;BME280;63802;53.232;6.570;2024-03-02T02:14:08;100051.91;;;6.48;100.00
75221;BME280;63802;53.232;6.570;2024-03-02T02:16:34;100061.09;;;6.59;100.00
75221;BME280;63802;53.232;6.570;2024-03-02T02:18:59;100028.69;;;6.47;100.00
75221;BME280;63802;53.232;6.570;2024-03-02T02:21:25;100068.50;;;6.62;100.00
75221;BME280;63802;53.232;6.570;2024-03-02T02:23:52;100062.63;;;6.60;100.00
75221;BME280;63802;53.232;6.570;2024-03-02T02:26:18;100040.47;;;6.55;100.00
75221;BME280;63802;53.232;6.570;2024-03-02T02:28:43;100023.41;;;6.54;100.00
75221;BME280;63802;53.232;6.570;2024-03-02T02:31:13;100061.03;;;6.75;100.00
75221;BME280;63802;53.232;6.570;2024-03-02T02:33:42;100070.22;;;6.70;100.00
75221;BME280;63802;53.232;6.570;2024-03-02T02:36:08;100069.44;;;6.70;100.00
75221;BME280;63802;53.232;6.570;2024-03-02T02:38:40;100051.09;;;6.63;100.00
75221;BME280;63802;53.232;6.570;2024-03-02T02:41:06;100058.69;;;6.73;100.00
75221;BME280;63802;53.232;6.570;2024-03-02T02:43:32;100061.03;;;6.75;100.00
75221;BME280;63802;53.232;6.570;2024-03-02T02:45:57;100059.97;;;6.80;100.00
75221;BME280;63802;53.232;6.570;2024-03-02T02:48:23;100053.75;;;6.79;100.00
75221;BME280;63802;53.232;6.570;2024-03-02T02:50:48;100061.53;;;6.81;100.00
75221;BME280;63802;53.232;6.570;2024-03-02T02:53:14;100057.34;;;6.83;100.00
75221;BME280;63802;53.232;6.570;2024-03-02T02:55:40;100073.75;;;6.90;100.00
75221;BME280;63802;53.232;6.570;2024-03-02T02:58:11;100072.25;;;6.93;100.00
75221;BME280;63802;53.232;6.570;2024-03-02T03:00:37;100043.25;;;6.78;100.00
75221;BME280;63802;53.232;6.570;2024-03-02T03:03:03;100073.81;;;6.94;100.00
75221;BME280;63802;53.232;6.570;2024-03-02T03:05:28;100071.59;;;6.99;100.00
75221;BME280;63802;53.232;6.570;2024-03-02T03:07:53;100073.25;;;7.04;100.00
75221;BME280;63802;53.232;6.570;2024-03-02T03:10:19;100055.06;;;7.04;100.00
75221;BME280;63802;53.232;6.570;2024-03-02T03:12:47;100069.75;;;7.22;100.00
75221;BME280;63802;53.232;6.570;2024-03-02T03:15:13;100042.41;;;7.12;100.00
75221;BME280;63802;53.232;6.570;2024-03-02T03:17:41;100037.41;;;7.14;100.00
75221;BME280;63802;53.232;6.570;2024-03-02T03:20:07;100059.94;;;7.37;100.00
75221;BME280;63802;53.232;6.570;2024-03-02T03:22:36;100064.59;;;7.36;100.00
75221;BME280;63802;53.232;6.570;2024-03-02T03:25:02;100064.38;;;7.45;100.00
75221;BME280;63802;53.232;6.570;2024-03-02T03:27:28;100068.66;;;7.46;100.00
75221;BME280;63802;53.232;6.570;2024-03-02T03:29:54;100065.63;;;7.51;100.00
75221;BME280;63802;53.232;6.570;2024-03-02T03:32:20;100044.72;;;7.52;100.00
75221;BME280;63802;53.232;6.570;2024-03-02T03:34:45;100042.28;;;7.47;100.00
75221;BME280;63802;53.232;6.570;2024-03-02T03:37:13;100047.06;;;7.53;100.00
75221;BME280;63802;53.232;6.570;2024-03-02T03:39:38;100053.28;;;7.54;100.00
75221;BME280;63802;53.232;6.570;2024-03-02T03:42:04;100057.06;;;7.49;100.00
75221;BME280;63802;53.232;6.570;2024-03-02T03:44:29;100057.94;;;7.53;100.00
75221;BME280;63802;53.232;6.570;2024-03-02T03:46:55;100056.28;;;7.49;100.00
75221;BME280;63802;53.232;6.570;2024-03-02T03:49:20;100064.00;;;7.47;100.00
75221;BME280;63802;53.232;6.570;2024-03-02T03:51:46;100056.09;;;7.38;100.00
75221;BME280;63802;53.232;6.570;2024-03-02T03:54:11;100059.09;;;7.33;100.00
75221;BME280;63802;53.232;6.570;2024-03-02T03:56:37;100040.03;;;7.29;100.00
75221;BME280;63802;53.232;6.570;2024-03-02T03:59:03;100032.50;;;7.19;100.00
75221;BME280;63802;53.232;6.570;2024-03-02T04:01:30;100037.50;;;7.17;100.00
75221;BME280;63802;53.232;6.570;2024-03-02T04:03:55;100049.69;;;7.27;100.00
75221;BME280;63802;53.232;6.570;2024-03-02T04:06:21;100036.16;;;7.08;100.00
75221;BME280;63802;53.232;6.570;2024-03-02T04:08:46;100063.56;;;7.22;100.00
75221;BME280;63802;53.232;6.570;2024-03-02T04:11:12;100068.25;;;7.25;100.00
75221;BME280;63802;53.232;6.570;2024-03-02T04:13:37;100056.63;;;7.24;100.00
75221;BME280;63802;53.232;6.570;2024-03-02T04:16:06;100075.94;;;7.23;100.00
75221;BME280;63802;53.232;6.570;2024-03-02T04:18:31;100064.31;;;7.22;100.00
75221;BME280;63802;53.232;6.570;2024-03-02T04:21:00;100071.09;;;7.13;100.00
75221;BME280;63802;53.232;6.570;2024-03-02T04:23:26;100074.13;;;7.08;100.00
75221;BME280;63802;53.232;6.570;2024-03-02T04:25:52;100078.09;;;7.14;100.00
75221;BME280;63802;53.232;6.570;2024-03-02T04:28:17;100063.84;;;6.98;100.00
75221;BME280;63802;53.232;6.570;2024-03-02T04:30:42;100070.97;;;7.06;100.00
75221;BME280;63802;53.232;6.570;2024-03-02T04:33:08;100071.09;;;7.13;100.00
75221;BME280;63802;53.232;6.570;2024-03-02T04:35:38;100056.13;;;7.00;100.00
75221;BME280;63802;53.232;6.570;2024-03-02T04:38:04;100092.22;;;7.23;100.00
75221;BME280;63802;53.232;6.570;2024-03-02T04:40:29;100071.56;;;7.15;100.00
75221;BME280;63802;53.232;6.570;2024-03-02T04:42:58;100070.38;;;7.16;100.00
75221;BME280;63802;53.232;6.570;2024-03-02T04:45:24;100086.53;;;7.28;100.00
75221;BME280;63802;53.232;6.570;2024-03-02T04:47:50;100074.41;;;7.22;100.00
75221;BME280;63802;53.232;6.570;2024-03-02T04:50:15;100088.38;;;7.24;100.00
75221;BME280;63802;53.232;6.570;2024-03-02T04:52:40;100072.69;;;7.14;100.00
75221;BME280;63802;53.232;6.570;2024-03-02T04:55:06;100089.38;;;7.16;100.00
75221;BME280;63802;53.232;6.570;2024-03-02T04:57:50;100096.81;;;7.19;100.00
75221;BME280;63802;53.232;6.570;2024-03-02T05:00:16;100091.94;;;7.09;100.00
75221;BME280;63802;53.232;6.570;2024-03-02T05:02:42;100098.16;;;7.09;100.00
75221;BME280;63802;53.232;6.570;2024-03-02T05:05:08;100105.09;;;7.07;100.00
75221;BME280;63802;53.232;6.570;2024-03-02T05:07:33;100110.38;;;7.00;100.00
75221;BME280;63802;53.232;6.570;2024-03-02T05:09:59;100094.66;;;6.90;100.00
75221;BME280;63802;53.232;6.570;2024-03-02T05:12:24;100103.91;;;6.89;100.00
75221;BME280;63802;53.232;6.570;2024-03-02T05:15:17;100103.91;;;6.89;100.00
75221;BME280;63802;53.232;6.570;2024-03-02T05:17:49;100124.63;;;6.97;100.00
75221;BME280;63802;53.232;6.570;2024-03-02T05:20:14;100114.22;;;6.99;100.00
75221;BME280;63802;53.232;6.570;2024-03-02T05:22:40;100107.56;;;6.96;100.00
75221;BME280;63802;53.232;6.570;2024-03-02T05:25:06;100121.38;;;7.07;100.00
75221;BME280;63802;53.232;6.570;2024-03-02T05:27:32;100126.09;;;7.10;100.00
75221;BME280;63802;53.232;6.570;2024-03-02T05:29:59;100134.50;;;7.05;100.00
75221;BME280;63802;53.232;6.570;2024-03-02T05:32:24;100125.16;;;7.02;100.00
75221;BME280;63802;53.232;6.570;2024-03-02T05:34:50;100131.69;;;7.01;100.00
75221;BME280;63802;53.232;6.570;2024-03-02T05:37:18;100135.63;;;7.04;100.00
75221;BME280;63802;53.232;6.570;2024-03-02T05:39:45;100131.50;;;7.10;100.00
75221;BME280;63802;53.232;6.570;2024-03-02T05:42:10;100140.94;;;7.16;100.00
75221;BME280;63802;53.232;6.570;2024-03-02T05:44:36;100136.34;;;7.20;100.00
75221;BME280;63802;53.232;6.570;2024-03-02T05:47:02;100140.13;;;7.15;100.00
75221;BME280;63802;53.232;6.570;2024-03-02T05:49:28;100145.50;;;7.12;100.00
75221;BME280;63802;53.232;6.570;2024-03-02T05:51:53;100145.50;;;7.12;100.00
75221;BME280;63802;53.232;6.570;2024-03-02T05:54:19;100145.50;;;7.12;100.00
75221;BME280;63802;53.232;6.570;2024-03-02T05:56:44;100148.22;;;7.12;100.00
75221;BME280;63802;53.232;6.570;2024-03-02T05:59:13;100157.84;;;7.09;100.00
75221;BME280;63802;53.232;6.570;2024-03-02T06:01:43;100154.06;;;7.14;100.00
75221;BME280;63802;53.232;6.570;2024-03-02T06:04:09;100161.78;;;7.12;100.00
75221;BME280;63802;53.232;6.570;2024-03-02T06:06:35;100144.03;;;6.99;100.00
75221;BME280;63802;53.232;6.570;2024-03-02T06:09:01;100174.50;;;7.08;100.00
75221;BME280;63802;53.232;6.570;2024-03-02T06:11:30;100173.34;;;7.09;100.00
75221;BME280;63802;53.232;6.570;2024-03-02T06:13:56;100171.59;;;7.01;100.00
75221;BME280;63802;53.232;6.570;2024-03-02T06:16:22;100161.47;;;6.98;100.00
75221;BME280;63802;53.232;6.570;2024-03-02T06:18:47;100172.47;;;7.05;100.00
75221;BME280;63802;53.232;6.570;2024-03-02T06:21:12;100184.19;;;7.09;100.00
75221;BME280;63802;53.232;6.570;2024-03-02T06:23:38;100179.47;;;7.06;100.00
75221;BME280;63802;53.232;6.570;2024-03-02T06:26:03;100190.41;;;7.09;100.00
75221;BME280;63802;53.232;6.570;2024-03-02T06:28:28;100191.47;;;7.05;100.00
75221;BME280;63802;53.232;6.570;2024-03-02T06:30:54;100191.81;;;7.03;100.00
75221;BME280;63802;53.232;6.570;2024-03-02T06:33:19;100195.56;;;6.99;100.00
75221;BME280;63802;53.232;6.570;2024-03-02T06:35:45;100207.91;;;6.96;100.00
75221;BME280;63802;53.232;6.570;2024-03-02T06:38:11;100212.84;;;6.91;100.00
75221;BME280;63802;53.232;6.570;2024-03-02T06:40:36;100214.59;;;6.83;100.00
75221;BME280;63802;53.232;6.570;2024-03-02T06:43:04;100209.09;;;6.80;100.00
75221;BME280;63802;53.232;6.570;2024-03-02T06:45:30;100213.28;;;6.77;100.00
75221;BME280;63802;53.232;6.570;2024-03-02T06:47:56;100211.72;;;6.76;100.00
75221;BME280;63802;53.232;6.570;2024-03-02T06:50:21;100203.50;;;6.72;100.00
75221;BME280;63802;53.232;6.570;2024-03-02T06:52:47;100220.28;;;6.78;100.00
75221;BME280;63802;53.232;6.570;2024-03-02T06:55:12;100203.75;;;6.67;100.00
75221;BME280;63802;53.232;6.570;2024-03-02T06:57:38;100218.03;;;6.64;100.00
75221;BME280;63802;53.232;6.570;2024-03-02T07:00:04;100216.63;;;6.70;100.00
75221;BME280;63802;53.232;6.570;2024-03-02T07:02:31;100217.41;;;6.71;100.00
75221;BME280;63802;53.232;6.570;2024-03-02T07:04:56;100222.03;;;6.70;100.00
75221;BME280;63802;53.232;6.570;2024-03-02T07:07:34;100203.16;;;6.58;100.00
75221;BME280;63802;53.232;6.570;2024-03-02T07:10:04;100223.38;;;6.77;100.00
75221;BME280;63802;53.232;6.570;2024-03-02T07:12:30;100232.69;;;6.79;100.00
75221;BME280;63802;53.232;6.570;2024-03-02T07:14:59;100227.63;;;6.78;100.00
75221;BME280;63802;53.232;6.570;2024-03-02T07:17:28;100227.56;;;6.74;100.00
75221;BME280;63802;53.232;6.570;2024-03-02T07:19:53;100241.88;;;6.74;100.00
75221;BME280;63802;53.232;6.570;2024-03-02T07:22:19;100238.84;;;6.76;100.00
75221;BME280;63802;53.232;6.570;2024-03-02T07:24:44;100247.38;;;6.94;100.00
75221;BME280;63802;53.232;6.570;2024-03-02T07:27:11;100247.63;;;7.04;100.00
75221;BME280;63802;53.232;6.570;2024-03-02T07:29:38;100254.03;;;7.12;100.00
75221;BME280;63802;53.232;6.570;2024-03-02T07:32:04;100261.47;;;7.15;100.00
75221;BME280;63802;53.232;6.570;2024-03-02T07:34:30;100251.72;;;7.14;100.00
75221;BME280;63802;53.232;6.570;2024-03-02T07:36:56;100262.84;;;7.24;100.00
75221;BME280;63802;53.232;6.570;2024-03-02T07:39:22;100264.50;;;7.29;100.00
75221;BME280;63802;53.232;6.570;2024-03-02T07:41:48;100257.13;;;7.29;100.00
75221;BME280;63802;53.232;6.570;2024-03-02T07:44:13;100267.63;;;7.31;100.00
75221;BME280;63802;53.232;6.570;2024-03-02T07:46:45;100266.03;;;7.30;100.00
75221;BME280;63802;53.232;6.570;2024-03-02T07:49:12;100266.78;;;7.27;100.00
75221;BME280;63802;53.232;6.570;2024-03-02T07:51:41;100278.47;;;7.31;100.00
75221;BME280;63802;53.232;6.570;2024-03-02T07:54:07;100267.78;;;7.38;100.00
75221;BME280;63802;53.232;6.570;2024-03-02T07:56:32;100280.09;;;7.51;100.00
75221;BME280;63802;53.232;6.570;2024-03-02T07:58:58;100275.88;;;7.73;100.00
75221;BME280;63802;53.232;6.570;2024-03-02T08:01:30;100290.78;;;7.98;100.00
75221;BME280;63802;53.232;6.570;2024-03-02T08:04:00;100295.69;;;8.11;100.00
75221;BME280;63802;53.232;6.570;2024-03-02T08:06:27;100294.16;;;8.10;100.00
75221;BME280;63802;53.232;6.570;2024-03-02T08:08:57;100284.84;;;8.11;100.00
75221;BME280;63802;53.232;6.570;2024-03-02T08:11:23;100294.28;;;8.18;100.00
75221;BME280;63802;53.232;6.570;2024-03-02T08:13:49;100289.16;;;8.32;100.00
75221;BME280;63802;53.232;6.570;2024-03-02T08:16:18;100289.69;;;8.41;100.00
75221;BME280;63802;53.232;6.570;2024-03-02T08:18:45;100297.00;;;8.37;100.00
75221;BME280;63802;53.232;6.570;2024-03-02T08:21:12;100299.31;;;8.35;100.00
75221;BME280;63802;53.232;6.570;2024-03-02T08:23:38;100305.78;;;8.49;100.00
75221;BME280;63802;53.232;6.570;2024-03-02T08:26:04;100313.84;;;8.65;100.00
75221;BME280;63802;53.232;6.570;2024-03-02T08:28:30;100316.72;;;8.53;100.00
75221;BME280;63802;53.232;6.570;2024-03-02T08:30:58;100318.72;;;8.56;100.00
75221;BME280;63802;53.232;6.570;2024-03-02T08:33:25;100320.09;;;8.69;100.00
75221;BME280;63802;53.232;6.570;2024-03-02T08:35:51;100300.66;;;8.67;100.00
75221;BME280;63802;53.232;6.570;2024-03-02T08:38:17;100327.78;;;8.86;100.00
75221;BME280;63802;53.232;6.570;2024-03-02T08:40:44;100335.47;;;8.58;100.00
75221;BME280;63802;53.232;6.570;2024-03-02T08:43:09;100330.22;;;8.27;100.00
75221;BME280;63802;53.232;6.570;2024-03-02T08:45:35;100307.44;;;8.16;100.00
75221;BME280;63802;53.232;6.570;2024-03-02T08:48:01;100320.13;;;8.27;100.00
75221;BME280;63802;53.232;6.570;2024-03-02T08:50:26;100329.91;;;8.51;100.00
75221;BME280;63802;53.232;6.570;2024-03-02T08:52:51;100333.41;;;8.51;100.00
75221;BME280;63802;53.232;6.570;2024-03-02T08:55:17;100313.56;;;8.51;100.00
75221;BME280;63802;53.232;6.570;2024-03-02T08:57:43;100331.41;;;8.71;100.00
75221;BME280;63802;53.232;6.570;2024-03-02T09:00:09;100316.47;;;8.39;100.00
75221;BME280;63802;53.232;6.570;2024-03-02T09:02:35;100325.88;;;8.45;100.00
75221;BME280;63802;53.232;6.570;2024-03-02T09:05:01;100352.63;;;8.62;100.00
75221;BME280;63802;53.232;6.570;2024-03-02T09:07:26;100344.88;;;8.64;100.00
75221;BME280;63802;53.232;6.570;2024-03-02T09:09:52;100345.03;;;8.52;100.00
75221;BME280;63802;53.232;6.570;2024-03-02T09:12:18;100345.47;;;8.73;100.00
75221;BME280;63802;53.232;6.570;2024-03-02T09:14:45;100343.78;;;8.88;100.00
75221;BME280;63802;53.232;6.570;2024-03-02T09:17:12;100347.94;;;9.04;100.00
75221;BME280;63802;53.232;6.570;2024-03-02T09:19:38;100347.34;;;8.92;100.00
75221;BME280;63802;53.232;6.570;2024-03-02T09:22:03;100348.59;;;8.98;100.00
75221;BME280;63802;53.232;6.570;2024-03-02T09:24:31;100351.69;;;8.96;100.00
75221;BME280;63802;53.232;6.570;2024-03-02T09:26:56;100339.28;;;8.99;100.00
75221;BME280;63802;53.232;6.570;2024-03-02T09:29:23;100328.78;;;8.97;100.00
75221;BME280;63802;53.232;6.570;2024-03-02T09:31:49;100320.13;;;8.92;100.00
75221;BME280;63802;53.232;6.570;2024-03-02T09:34:16;100318.97;;;8.93;100.00
75221;BME280;63802;53.232;6.570;2024-03-02T09:36:41;100317.66;;;9.32;100.00
75221;BME280;63802;53.232;6.570;2024-03-02T09:39:07;100334.44;;;9.90;100.00
75221;BME280;63802;53.232;6.570;2024-03-02T09:41:35;100346.66;;;10.29;100.00
75221;BME280;63802;53.232;6.570;2024-03-02T09:44:11;100359.75;;;9.90;100.00
75221;BME280;63802;53.232;6.570;2024-03-02T09:46:37;100345.13;;;10.02;100.00
75221;BME280;63802;53.232;6.570;2024-03-02T09:49:03;100345.78;;;10.22;100.00
75221;BME280;63802;53.232;6.570;2024-03-02T09:51:29;100350.03;;;10.52;100.00
75221;BME280;63802;53.232;6.570;2024-03-02T09:53:55;100356.34;;;11.00;100.00
75221;BME280;63802;53.232;6.570;2024-03-02T09:56:22;100334.19;;;11.09;100.00
75221;BME280;63802;53.232;6.570;2024-03-02T09:58:48;100343.94;;;10.66;100.00
75221;BME280;63802;53.232;6.570;2024-03-02T10:01:14;100353.50;;;10.86;100.00
75221;BME280;63802;53.232;6.570;2024-03-02T10:03:39;100345.63;;;10.11;100.00
75221;BME280;63802;53.232;6.570;2024-03-02T10:06:25;100351.94;;;9.89;100.00
75221;BME280;63802;53.232;6.570;2024-03-02T10:08:51;100347.66;;;9.88;100.00
75221;BME280;63802;53.232;6.570;2024-03-02T10:11:33;100327.13;;;9.68;100.00
75221;BME280;63802;53.232;6.570;2024-03-02T10:14:06;100365.34;;;10.01;100.00
75221;BME280;63802;53.232;6.570;2024-03-02T10:16:36;100361.44;;;10.28;100.00
75221;BME280;63802;53.232;6.570;2024-03-02T10:19:28;100357.28;;;10.38;100.00
75221;BME280;63802;53.232;6.570;2024-03-02T10:21:58;100352.41;;;9.94;100.00
75221;BME280;63802;53.232;6.570;2024-03-02T10:24:24;100330.31;;;10.29;100.00
75221;BME280;63802;53.232;6.570;2024-03-02T10:26:50;100317.22;;;10.45;100.00
75221;BME280;63802;53.232;6.570;2024-03-02T10:29:16;100317.47;;;10.33;100.00
75221;BME280;63802;53.232;6.570;2024-03-02T10:31:44;100329.03;;;10.56;100.00
75221;BME280;63802;53.232;6.570;2024-03-02T10:34:10;100342.09;;;11.21;100.00
75221;BME280;63802;53.232;6.570;2024-03-02T10:36:37;100351.63;;;11.44;100.00
75221;BME280;63802;53.232;6.570;2024-03-02T10:39:03;100337.13;;;10.90;100.00
75221;BME280;63802;53.232;6.570;2024-03-02T10:41:32;100328.41;;;10.73;100.00
75221;BME280;63802;53.232;6.570;2024-03-02T10:43:59;100336.72;;;10.47;100.00
75221;BME280;63802;53.232;6.570;2024-03-02T10:46:29;100335.88;;;11.24;100.00
75221;BME280;63802;53.232;6.570;2024-03-02T10:48:56;100336.69;;;11.82;100.00
75221;BME280;63802;53.232;6.570;2024-03-02T10:51:24;100310.28;;;11.46;100.00
75221;BME280;63802;53.232;6.570;2024-03-02T10:53:50;100339.28;;;12.37;100.00
75221;BME280;63802;53.232;6.570;2024-03-02T10:56:22;100336.50;;;12.23;100.00
75221;BME280;63802;53.232;6.570;2024-03-02T10:58:53;100327.72;;;11.85;100.00
75221;BME280;63802;53.232;6.570;2024-03-02T11:01:21;100325.47;;;12.01;100.00
75221;BME280;63802;53.232;6.570;2024-03-02T11:03:47;100330.66;;;12.28;100.00
75221;BME280;63802;53.232;6.570;2024-03-02T11:06:13;100331.53;;;12.70;100.00
75221;BME280;63802;53.232;6.570;2024-03-02T11:08:43;100327.31;;;13.19;100.00
75221;BME280;63802;53.232;6.570;2024-03-02T11:11:44;100300.59;;;12.42;100.00
75221;BME280;63802;53.232;6.570;2024-03-02T11:14:16;100319.41;;;12.68;100.00
75221;BME280;63802;53.232;6.570;2024-03-02T11:16:42;100311.59;;;12.70;100.00
75221;BME280;63802;53.232;6.570;2024-03-02T11:19:13;100335.88;;;12.89;100.00
75221;BME280;63802;53.232;6.570;2024-03-02T11:21:40;100310.59;;;11.95;100.00
75221;BME280;63802;53.232;6.570;2024-03-02T11:26:48;100295.91;;;12.42;100.00
75221;BME280;63802;53.232;6.570;2024-03-02T11:32:06;100325.28;;;12.84;100.00
75221;BME280;63802;53.232;6.570;2024-03-02T11:34:41;100327.28;;;13.01;100.00
75221;BME280;63802;53.232;6.570;2024-03-02T11:37:11;100326.03;;;12.53;100.00
75221;BME280;63802;53.232;6.570;2024-03-02T11:39:44;100304.19;;;12.81;100.00
75221;BME280;63802;53.232;6.570;2024-03-02T11:42:11;100332.00;;;13.39;100.00
75221;BME280;63802;53.232;6.570;2024-03-02T11:44:46;100296.00;;;13.16;100.00
75221;BME280;63802;53.232;6.570;2024-03-02T11:47:16;100299.91;;;13.43;100.00
75221;BME280;63802;53.232;6.570;2024-03-02T11:49:50;100280.31;;;12.92;100.00
75221;BME280;63802;53.232;6.570;2024-03-02T11:52:22;100280.31;;;12.92;100.00
75221;BME280;63802;53.232;6.570;2024-03-02T11:54:49;100322.06;;;13.95;100.00
75221;BME280;63802;53.232;6.570;2024-03-02T11:57:22;100268.91;;;13.64;100.00
75221;BME280;63802;53.232;6.570;2024-03-02T11:59:52;100309.59;;;13.76;100.00
75221;BME280;63802;53.232;6.570;2024-03-02T12:02:20;100306.31;;;14.20;100.00
75221;BME280;63802;53.232;6.570;2024-03-02T12:04:48;100276.19;;;13.99;100.00
75221;BME280;63802;53.232;6.570;2024-03-02T12:07:23;100267.00;;;13.43;100.00
75221;BME280;63802;53.232;6.570;2024-03-02T12:10:07;100301.25;;;14.08;100.00
75221;BME280;63802;53.232;6.570;2024-03-02T12:12:40;100294.38;;;13.54;98.84
75221;BME280;63802;53.232;6.570;2024-03-02T12:15:08;100313.47;;;13.93;99.56
75221;BME280;63802;53.232;6.570;2024-03-02T12:17:41;100313.19;;;12.92;98.70
75221;BME280;63802;53.232;6.570;2024-03-02T12:20:07;100286.84;;;12.21;98.02
75221;BME280;63802;53.232;6.570;2024-03-02T12:22:33;100298.22;;;12.37;100.00
75221;BME280;63802;53.232;6.570;2024-03-02T12:25:02;100292.00;;;12.50;100.00
75221;BME280;63802;53.232;6.570;2024-03-02T12:27:31;100288.88;;;12.62;100.00
75221;BME280;63802;53.232;6.570;2024-03-02T12:30:10;100290.41;;;12.32;100.00
75221;BME280;63802;53.232;6.570;2024-03-02T12:32:39;100279.44;;;12.25;100.00
75221;BME280;63802;53.232;6.570;2024-03-02T12:35:05;100306.47;;;12.44;100.00
75221;BME280;63802;53.232;6.570;2024-03-02T12:37:30;100282.97;;;12.32;100.00
75221;BME280;63802;53.232;6.570;2024-03-02T12:39:56;100313.03;;;12.22;100.00
75221;BME280;63802;53.232;6.570;2024-03-02T12:42:25;100282.94;;;12.22;100.00
75221;BME280;63802;53.232;6.570;2024-03-02T12:44:54;100303.75;;;12.65;100.00
75221;BME280;63802;53.232;6.570;2024-03-02T12:47:20;100312.31;;;12.39;100.00
75221;BME280;63802;53.232;6.570;2024-03-02T12:49:46;100305.25;;;12.24;100.00
75221;BME280;63802;53.232;6.570;2024-03-02T12:52:13;100301.81;;;12.58;100.00
75221;BME280;63802;53.232;6.570;2024-03-02T12:54:41;100325.66;;;12.61;100.00
75221;BME280;63802;53.232;6.570;2024-03-02T12:57:07;100303.00;;;12.96;100.00
75221;BME280;63802;53.232;6.570;2024-03-02T12:59:33;100322.56;;;12.84;100.00